Time;durP1;ratioP1;P1;durP2;ratioP2;P2;SDS_P1;SDS_P2;PMS_P1;PMS_P2;Temp;Humidity;BMP_temperature;BMP_pressure;BME280_temperature;BME280_humidity;BME280_pressure;Samples;Min_cycle;Max_cycle;Signal;HPM_P1;HPM_P2
2023/07/18 00:00:14;;;;;;;12.07;6.45;;;20.80;98.70;;;;;;5028471;28;20065;-74
2023/07/18 00:02:46;;;;;;;9.80;6.32;;;20.80;98.90;;;;;;5028636;28;20045;-72
2023/07/18 00:05:12;;;;;;;11.80;6.25;;;20.60;99.10;;;;;;5026007;28;20029;-73
2023/07/18 00:07:42;;;;;;;8.65;5.40;;;20.50;99.90;;;;;;5028433;28;20029;-73
2023/07/18 00:10:09;;;;;;;10.27;5.65;;;20.50;99.90;;;;;;5026356;28;20099;-75
2023/07/18 00:12:36;;;;;;;15.05;5.38;;;20.30;99.90;;;;;;5030159;28;20047;-73
2023/07/18 00:15:04;;;;;;;12.68;6.22;;;20.20;99.90;;;;;;5029738;28;20206;-73
2023/07/18 00:17:31;;;;;;;9.45;5.75;;;20.30;99.90;;;;;;5029005;28;20150;-74
2023/07/18 00:19:58;;;;;;;11.40;6.13;;;20.30;99.90;;;;;;5023632;28;20057;-74
2023/07/18 00:22:24;;;;;;;11.98;5.70;;;20.10;99.90;;;;;;5030460;28;20115;-72
2023/07/18 00:24:50;;;;;;;10.60;5.60;;;20.20;99.90;;;;;;5027024;28;20374;-74
2023/07/18 00:27:16;;;;;;;12.17;5.87;;;20.30;99.90;;;;;;5029149;28;20539;-74
2023/07/18 00:29:41;;;;;;;13.65;6.22;;;20.10;99.90;;;;;;5027031;28;20108;-73
2023/07/18 00:32:07;;;;;;;13.73;5.73;;;20.10;99.90;;;;;;5024564;28;20034;-74
2023/07/18 00:34:33;;;;;;;9.38;5.53;;;20.10;99.90;;;;;;5024401;28;20040;-73
2023/07/18 00:36:58;;;;;;;10.37;6.17;;;19.90;99.90;;;;;;5026511;28;20568;-74
2023/07/18 00:39:24;;;;;;;10.90;6.47;;;19.80;99.90;;;;;;5026146;28;20035;-73
2023/07/18 00:41:50;;;;;;;8.77;5.97;;;19.80;99.90;;;;;;5027785;28;20515;-74
2023/07/18 00:44:15;;;;;;;11.57;6.10;;;19.90;99.90;;;;;;5023745;28;20147;-73
2023/07/18 00:46:41;;;;;;;11.17;6.10;;;19.80;99.90;;;;;;5030413;28;20026;-72
2023/07/18 00:49:08;;;;;;;12.60;5.90;;;19.80;99.90;;;;;;5027386;28;20017;-74
2023/07/18 00:51:34;;;;;;;9.00;6.10;;;19.80;99.90;;;;;;5024178;28;20048;-73
2023/07/18 00:54:00;;;;;;;10.48;5.25;;;19.80;99.90;;;;;;5026225;28;20029;-73
2023/07/18 00:56:27;;;;;;;10.25;5.82;;;19.80;99.90;;;;;;5028282;28;20033;-72
2023/07/18 00:58:53;;;;;;;9.70;5.78;;;19.80;99.90;;;;;;5027291;28;20410;-73
2023/07/18 01:01:19;;;;;;;9.20;5.38;;;19.70;99.90;;;;;;5029344;28;20041;-73
2023/07/18 01:03:44;;;;;;;14.25;6.10;;;19.80;99.90;;;;;;5025954;28;20021;-74
2023/07/18 01:06:11;;;;;;;9.50;6.43;;;19.70;99.90;;;;;;5028757;28;20084;-74
2023/07/18 01:08:39;;;;;;;9.75;5.35;;;19.80;99.90;;;;;;5026024;28;20044;-74
2023/07/18 01:11:06;;;;;;;12.93;5.80;;;19.80;99.90;;;;;;5028685;28;20064;-74
2023/07/18 01:13:32;;;;;;;12.90;5.88;;;19.80;99.90;;;;;;5025881;28;20408;-74
2023/07/18 01:15:58;;;;;;;11.30;5.90;;;19.70;99.90;;;;;;5026717;28;20204;-74
2023/07/18 01:18:24;;;;;;;8.77;5.07;;;19.60;99.90;;;;;;5029316;28;20127;-71
2023/07/18 01:20:49;;;;;;;11.95;5.68;;;19.60;99.90;;;;;;5020001;28;20041;-73
2023/07/18 01:23:15;;;;;;;12.33;6.03;;;19.50;99.90;;;;;;5025205;28;20523;-72
2023/07/18 01:25:42;;;;;;;18.17;7.23;;;19.40;99.90;;;;;;5026530;28;20037;-73
2023/07/18 01:28:08;;;;;;;12.90;5.80;;;19.50;99.90;;;;;;5022540;28;20041;-73
2023/07/18 01:30:33;;;;;;;7.32;5.57;;;19.50;99.90;;;;;;5028894;28;20544;-74
2023/07/18 01:32:59;;;;;;;11.17;6.27;;;19.60;99.90;;;;;;5023795;28;20397;-74
2023/07/18 01:35:26;;;;;;;11.40;5.43;;;19.40;99.90;;;;;;5027378;28;20071;-74
2023/07/18 01:37:53;;;;;;;13.50;5.93;;;19.40;99.90;;;;;;5028261;28;20021;-75
2023/07/18 01:40:20;;;;;;;11.10;6.15;;;19.40;99.90;;;;;;5028367;28;20115;-74
2023/07/18 01:42:53;;;;;;;13.45;6.22;;;19.30;99.90;;;;;;5021154;28;20017;-74
2023/07/18 01:45:23;;;;;;;9.50;5.63;;;19.40;99.90;;;;;;5027992;28;20029;-74
2023/07/18 01:47:49;;;;;;;10.35;6.07;;;19.30;99.90;;;;;;5026653;28;20032;-73
2023/07/18 01:50:15;;;;;;;10.85;6.25;;;19.30;99.90;;;;;;5027467;28;20224;-73
2023/07/18 01:52:41;;;;;;;9.35;5.75;;;19.20;99.90;;;;;;5023040;28;20044;-74
2023/07/18 01:55:08;;;;;;;13.50;6.53;;;19.30;99.90;;;;;;5030307;28;20021;-73
2023/07/18 01:57:43;;;;;;;9.82;5.72;;;19.20;99.90;;;;;;5028008;28;20555;-73
2023/07/18 02:00:19;;;;;;;12.00;5.70;;;19.10;99.90;;;;;;5026419;28;20060;-74
2023/07/18 02:02:49;;;;;;;11.48;6.70;;;18.90;99.90;;;;;;5021127;28;20749;-73
2023/07/18 02:05:17;;;;;;;9.40;5.72;;;19.10;99.90;;;;;;5040211;28;20437;-74
2023/07/18 02:07:43;;;;;;;9.57;6.00;;;19.10;99.90;;;;;;5024716;28;20397;-74
2023/07/18 02:10:09;;;;;;;9.07;6.20;;;19.00;99.90;;;;;;5025946;28;20064;-74
2023/07/18 02:12:35;;;;;;;10.13;5.82;;;19.00;99.90;;;;;;5026806;28;20049;-75
2023/07/18 02:15:01;;;;;;;14.53;6.33;;;19.10;99.90;;;;;;5021546;28;20033;-73
2023/07/18 02:17:27;;;;;;;14.88;6.22;;;19.00;99.90;;;;;;5027916;28;20022;-74
2023/07/18 02:19:52;;;;;;;10.27;6.07;;;19.00;99.90;;;;;;5023387;28;20048;-74
2023/07/18 02:22:19;;;;;;;11.37;5.93;;;19.00;99.90;;;;;;5028143;28;20048;-74
2023/07/18 02:24:45;;;;;;;7.15;5.43;;;19.00;99.90;;;;;;5019126;28;20025;-73
2023/07/18 02:27:10;;;;;;;13.88;7.45;;;19.00;99.90;;;;;;5026420;28;20047;-73
2023/07/18 02:29:36;;;;;;;11.87;6.13;;;19.00;99.90;;;;;;5023890;28;20425;-73
2023/07/18 02:32:01;;;;;;;9.37;5.50;;;19.00;99.90;;;;;;5025537;28;20025;-73
2023/07/18 02:34:27;;;;;;;14.60;6.30;;;19.00;99.90;;;;;;5028385;28;20513;-74
2023/07/18 02:36:53;;;;;;;12.90;6.63;;;18.90;99.90;;;;;;5027166;28;20029;-74
2023/07/18 02:39:19;;;;;;;14.65;5.95;;;19.00;99.90;;;;;;5026490;28;20851;-72
2023/07/18 02:41:45;;;;;;;8.63;5.90;;;18.90;99.90;;;;;;5020198;28;20569;-73
2023/07/18 02:44:11;;;;;;;10.97;6.27;;;18.90;99.90;;;;;;5027095;28;20036;-73
2023/07/18 02:46:37;;;;;;;14.73;6.28;;;18.80;99.90;;;;;;5031296;28;20090;-71
2023/07/18 02:49:03;;;;;;;11.23;6.63;;;18.70;99.90;;;;;;5030559;28;20033;-72
2023/07/18 02:51:28;;;;;;;11.93;6.90;;;18.70;99.90;;;;;;5023781;28;20555;-74
2023/07/18 02:53:54;;;;;;;8.80;5.83;;;18.80;99.90;;;;;;5029165;28;20032;-72
2023/07/18 02:56:20;;;;;;;14.75;6.30;;;18.80;99.90;;;;;;5031213;28;20029;-74
2023/07/18 02:58:46;;;;;;;14.67;6.73;;;18.90;99.90;;;;;;5029333;28;20079;-73
2023/07/18 03:01:12;;;;;;;10.20;6.00;;;18.90;99.90;;;;;;5028282;28;20056;-73
2023/07/18 03:03:38;;;;;;;16.33;5.90;;;18.90;99.90;;;;;;5030105;28;20020;-73
2023/07/18 03:06:04;;;;;;;15.10;6.23;;;18.80;99.90;;;;;;5026260;28;20415;-74
2023/07/18 03:08:34;;;;;;;11.73;6.10;;;18.70;99.90;;;;;;5025905;28;20025;-72
2023/07/18 03:11:06;;;;;;;14.27;6.95;;;18.70;99.90;;;;;;5030242;28;20053;-73
2023/07/18 03:13:31;;;;;;;9.73;5.97;;;18.60;99.90;;;;;;5032506;28;20029;-71
2023/07/18 03:15:57;;;;;;;11.57;6.40;;;18.70;99.90;;;;;;5029355;28;20043;-74
2023/07/18 03:18:23;;;;;;;9.40;6.32;;;18.50;99.90;;;;;;5028905;28;20038;-73
2023/07/18 03:20:49;;;;;;;7.37;5.57;;;18.50;99.90;;;;;;5027586;28;20041;-73
2023/07/18 03:23:15;;;;;;;13.10;5.78;;;18.60;99.90;;;;;;5029684;28;20802;-72
2023/07/18 03:25:40;;;;;;;12.02;6.38;;;18.50;99.90;;;;;;5029798;28;20084;-73
2023/07/18 03:28:08;;;;;;;16.43;6.73;;;18.40;99.90;;;;;;5030123;28;20018;-73
2023/07/18 03:30:34;;;;;;;11.52;6.30;;;18.50;99.90;;;;;;5030316;28;20072;-72
2023/07/18 03:32:59;;;;;;;10.88;6.13;;;18.50;99.90;;;;;;5029948;28;20072;-73
2023/07/18 03:35:25;;;;;;;12.50;6.73;;;18.50;99.90;;;;;;5029117;28;20033;-73
2023/07/18 03:37:51;;;;;;;13.63;7.27;;;18.60;99.90;;;;;;5028121;28;20017;-72
2023/07/18 03:40:16;;;;;;;12.13;6.70;;;18.60;99.90;;;;;;5028317;28;20120;-73
2023/07/18 03:42:43;;;;;;;10.03;5.90;;;18.50;99.90;;;;;;5022905;28;20030;-73
2023/07/18 03:45:10;;;;;;;11.65;6.18;;;18.50;99.90;;;;;;5030689;28;20032;-73
2023/07/18 03:47:37;;;;;;;15.05;7.13;;;18.50;99.90;;;;;;5032399;28;20056;-73
2023/07/18 03:50:03;;;;;;;9.52;6.18;;;18.60;99.90;;;;;;5028442;28;20036;-73
2023/07/18 03:52:29;;;;;;;12.13;6.57;;;18.60;99.90;;;;;;5028990;28;20457;-72
2023/07/18 03:54:55;;;;;;;12.30;6.68;;;18.60;99.90;;;;;;5026259;28;20097;-73
2023/07/18 03:57:20;;;;;;;10.37;6.27;;;18.50;99.90;;;;;;5029829;28;20401;-71
2023/07/18 03:59:46;;;;;;;16.27;7.50;;;18.40;99.90;;;;;;5021719;28;20302;-73
2023/07/18 04:02:14;;;;;;;15.40;7.27;;;18.50;99.90;;;;;;5026042;28;20025;-73
2023/07/18 04:04:41;;;;;;;11.30;6.55;;;18.40;99.90;;;;;;5027250;28;20034;-73
2023/07/18 04:07:07;;;;;;;12.98;6.60;;;18.30;99.90;;;;;;5028735;28;20030;-73
2023/07/18 04:09:33;;;;;;;15.68;7.28;;;18.50;99.90;;;;;;5031602;28;20040;-73
2023/07/18 04:11:59;;;;;;;16.45;6.03;;;18.50;99.90;;;;;;5027919;28;20481;-73
2023/07/18 04:14:24;;;;;;;11.10;6.43;;;18.40;99.90;;;;;;5028708;28;20083;-71
2023/07/18 04:16:51;;;;;;;12.50;7.03;;;18.40;99.90;;;;;;5029575;28;20057;-73
2023/07/18 04:19:16;;;;;;;;;;;18.40;99.90;;;;;;5029239;28;20037;-74
2023/07/18 04:21:42;;;;;;;14.77;6.78;;;18.50;99.90;;;;;;5028960;28;20711;-72
2023/07/18 04:24:08;;;;;;;10.50;6.00;;;18.50;99.90;;;;;;5027682;28;20037;-75
2023/07/18 04:26:34;;;;;;;;;;;18.50;99.90;;;;;;5028878;28;20505;-74
2023/07/18 04:29:00;;;;;;;12.35;6.78;;;18.50;99.90;;;;;;5035060;28;19920;-73
2023/07/18 04:31:26;;;;;;;16.17;7.18;;;18.50;99.90;;;;;;5039239;28;20611;-72
2023/07/18 04:33:52;;;;;;;12.75;6.88;;;18.60;99.90;;;;;;5038904;28;20071;-71
2023/07/18 04:36:17;;;;;;;12.77;6.43;;;18.60;99.90;;;;;;5035758;28;20022;-72
2023/07/18 04:38:44;;;;;;;12.83;7.13;;;18.60;99.90;;;;;;5035690;28;20524;-73
2023/07/18 04:41:09;;;;;;;12.98;7.30;;;18.60;99.90;;;;;;5037255;28;20050;-74
2023/07/18 04:43:35;;;;;;;11.67;6.43;;;18.50;99.90;;;;;;5039098;28;20044;-73
2023/07/18 04:46:00;;;;;;;18.03;7.53;;;18.70;99.90;;;;;;5029441;28;20037;-71
2023/07/18 04:48:26;;;;;;;12.73;7.33;;;18.70;99.90;;;;;;5035752;28;20572;-73
2023/07/18 04:50:59;;;;;;;13.67;7.50;;;18.70;99.90;;;;;;5032980;28;20051;-72
2023/07/18 04:53:30;;;;;;;11.60;6.40;;;18.60;99.90;;;;;;5037597;28;20470;-72
2023/07/18 04:55:56;;;;;;;10.82;6.55;;;18.70;99.90;;;;;;5027854;28;20078;-73
2023/07/18 04:58:26;;;;;;;12.63;6.93;;;18.70;99.90;;;;;;5026782;28;20124;-74
2023/07/18 05:00:54;;;;;;;10.70;6.30;;;18.50;99.90;;;;;;5038900;28;20045;-73
2023/07/18 05:03:20;;;;;;;17.88;7.28;;;18.60;99.90;;;;;;5031594;28;20028;-74
2023/07/18 05:05:46;;;;;;;12.77;6.82;;;18.60;99.90;;;;;;5024552;28;20086;-73
2023/07/18 05:08:12;;;;;;;11.97;7.50;;;18.70;99.90;;;;;;5035497;28;20355;-73
2023/07/18 05:10:38;;;;;;;16.97;6.80;;;18.80;99.90;;;;;;5036112;28;20035;-72
2023/07/18 05:13:03;;;;;;;14.40;7.63;;;18.80;99.90;;;;;;5036684;28;20028;-74
2023/07/18 05:15:29;;;;;;;15.57;7.53;;;18.80;99.90;;;;;;5027557;28;20041;-74
2023/07/18 05:17:55;;;;;;;12.67;6.67;;;18.80;99.90;;;;;;5029546;28;20036;-74
2023/07/18 05:20:20;;;;;;;13.93;6.70;;;18.90;99.90;;;;;;5034081;28;20424;-73
2023/07/18 05:22:46;;;;;;;18.47;6.73;;;19.00;99.90;;;;;;5035792;28;20064;-74
2023/07/18 05:25:14;;;;;;;13.77;7.10;;;19.10;99.90;;;;;;5041628;28;20823;-73
2023/07/18 05:27:40;;;;;;;14.88;8.32;;;19.30;99.90;;;;;;5036679;28;20040;-73
2023/07/18 05:30:14;;;;;;;15.15;7.95;;;19.20;99.90;;;;;;5036658;28;20111;-72
2023/07/18 05:32:41;;;;;;;15.38;7.68;;;19.20;99.90;;;;;;5034937;28;20065;-73
2023/07/18 05:35:10;;;;;;;15.68;7.10;;;19.40;99.90;;;;;;5032890;28;20049;-73
2023/07/18 05:37:36;;;;;;;19.10;7.38;;;19.30;99.90;;;;;;5033196;28;20040;-72
2023/07/18 05:40:03;;;;;;;14.35;6.78;;;19.40;99.90;;;;;;5032967;28;20412;-72
2023/07/18 05:42:29;;;;;;;14.05;6.60;;;19.60;99.90;;;;;;5034145;28;20056;-72
2023/07/18 05:44:55;;;;;;;15.98;7.85;;;19.70;99.90;;;;;;5029655;28;20025;-71
2023/07/18 05:47:20;;;;;;;11.10;6.97;;;19.90;99.90;;;;;;5034572;28;20112;-72
2023/07/18 05:49:46;;;;;;;14.63;7.20;;;20.10;99.90;;;;;;5031344;28;20401;-73
2023/07/18 05:52:12;;;;;;;13.93;7.57;;;20.10;99.90;;;;;;5034667;28;20033;-71
2023/07/18 05:54:38;;;;;;;16.75;6.90;;;20.10;99.90;;;;;;5039416;28;20044;-73
2023/07/18 05:57:04;;;;;;;12.93;6.65;;;20.30;99.90;;;;;;5029845;28;20026;-71
2023/07/18 05:59:30;;;;;;;14.38;7.10;;;20.40;99.90;;;;;;5035493;28;20061;-71
2023/07/18 06:01:56;;;;;;;17.60;7.10;;;20.80;99.90;;;;;;5030501;28;20037;-73
2023/07/18 06:04:22;;;;;;;15.30;7.40;;;21.10;99.90;;;;;;5034289;28;20497;-71
2023/07/18 06:06:47;;;;;;;15.93;6.77;;;21.20;99.90;;;;;;5034572;28;20474;-71
2023/07/18 06:09:13;;;;;;;11.97;6.53;;;21.10;99.90;;;;;;5027153;28;20021;-70
2023/07/18 06:11:39;;;;;;;18.27;7.45;;;21.30;99.90;;;;;;5023601;28;20026;-70
2023/07/18 06:14:08;;;;;;;9.83;6.67;;;21.60;99.90;;;;;;5026234;28;20033;-70
2023/07/18 06:16:33;;;;;;;18.15;6.80;;;21.70;99.90;;;;;;5030126;28;20135;-73
2023/07/18 06:18:59;;;;;;;17.87;7.30;;;22.00;99.30;;;;;;5028553;28;20049;-71
2023/07/18 06:21:26;;;;;;;11.50;6.57;;;22.20;98.40;;;;;;5031686;28;20303;-71
2023/07/18 06:23:55;;;;;;;9.85;6.53;;;22.50;97.80;;;;;;5034257;28;20095;-74
2023/07/18 06:26:21;;;;;;;12.10;6.55;;;22.30;99.00;;;;;;5026921;28;20036;-72
2023/07/18 06:28:46;;;;;;;11.02;6.65;;;22.20;99.00;;;;;;5041802;28;20481;-73
2023/07/18 06:31:14;;;;;;;14.87;6.83;;;22.50;97.90;;;;;;5034876;28;20051;-74
2023/07/18 06:33:40;;;;;;;14.35;6.30;;;22.40;96.40;;;;;;5027451;28;20116;-72
2023/07/18 06:36:06;;;;;;;16.48;6.88;;;22.50;96.60;;;;;;5029321;28;20382;-71
2023/07/18 06:38:32;;;;;;;16.75;6.88;;;22.60;96.60;;;;;;5035580;28;20040;-74
2023/07/18 06:40:57;;;;;;;17.77;6.70;;;22.70;96.10;;;;;;5040364;28;20052;-73
2023/07/18 06:43:24;;;;;;;23.45;7.70;;;23.10;95.10;;;;;;5038721;28;20035;-73
2023/07/18 06:45:50;;;;;;;20.73;7.68;;;23.00;94.10;;;;;;5037844;28;20103;-71
2023/07/18 06:48:16;;;;;;;19.60;6.90;;;23.00;95.20;;;;;;5041126;28;20036;-71
2023/07/18 06:50:49;;;;;;;24.52;7.00;;;23.20;94.30;;;;;;5034193;28;20040;-71
2023/07/18 06:53:17;;;;;;;14.90;6.63;;;23.40;93.70;;;;;;5037903;28;20027;-71
2023/07/18 06:55:43;;;;;;;13.20;6.75;;;23.80;92.20;;;;;;5030751;28;20037;-70
2023/07/18 06:58:09;;;;;;;18.63;6.30;;;23.90;92.00;;;;;;5031054;28;20032;-71
2023/07/18 07:00:35;;;;;;;20.10;6.23;;;23.80;90.90;;;;;;5029964;28;20045;-71
2023/07/18 07:03:01;;;;;;;;;;;24.00;91.70;;;;;;5026207;28;20033;-69
2023/07/18 07:05:27;;;;;;;15.73;6.50;;;24.00;91.60;;;;;;5040004;28;19913;-69
2023/07/18 07:07:53;;;;;;;13.75;6.50;;;24.00;91.10;;;;;;5033368;28;20041;-69
2023/07/18 07:10:19;;;;;;;24.42;6.82;;;24.00;91.20;;;;;;5029710;28;20042;-70
2023/07/18 07:12:44;;;;;;;11.77;6.03;;;24.00;91.30;;;;;;5038756;28;20393;-71
2023/07/18 07:15:11;;;;;;;10.33;6.57;;;23.90;91.40;;;;;;5032306;28;20039;-70
2023/07/18 07:17:37;;;;;;;14.07;7.03;;;24.20;90.50;;;;;;5031403;28;20028;-73
2023/07/18 07:20:05;;;;;;;11.63;6.72;;;24.10;91.60;;;;;;5035194;28;20037;-72
2023/07/18 07:22:31;;;;;;;19.25;6.85;;;24.20;91.40;;;;;;5034223;28;20102;-70
2023/07/18 07:24:57;;;;;;;17.50;7.30;;;24.30;91.50;;;;;;5019326;28;20029;-70
2023/07/18 07:27:23;;;;;;;12.82;7.10;;;24.40;91.00;;;;;;5038237;28;20048;-73
2023/07/18 07:29:49;;;;;;;92.07;24.75;;;24.70;90.40;;;;;;5028518;28;20036;-76
2023/07/18 07:32:15;;;;;;;78.45;21.67;;;24.50;90.30;;;;;;5034442;28;20467;-74
2023/07/18 07:34:41;;;;;;;31.27;10.15;;;24.20;91.40;;;;;;5032120;28;20120;-74
2023/07/18 07:37:08;;;;;;;50.00;13.98;;;24.50;89.90;;;;;;5031689;28;20041;-75
2023/07/18 07:39:34;;;;;;;64.05;17.13;;;24.70;90.40;;;;;;5041383;28;20202;-71
2023/07/18 07:42:00;;;;;;;27.48;9.05;;;24.70;90.10;;;;;;5026571;28;20075;-73
2023/07/18 07:44:27;;;;;;;24.77;9.30;;;24.60;88.90;;;;;;5028594;28;20104;-72
2023/07/18 07:46:53;;;;;;;29.27;8.43;;;24.40;90.60;;;;;;5029033;28;20021;-73
2023/07/18 07:49:19;;;;;;;17.08;6.90;;;24.40;91.00;;;;;;5041617;28;20024;-71
2023/07/18 07:51:45;;;;;;;17.90;7.22;;;24.40;90.10;;;;;;5027539;28;20132;-69
2023/07/18 07:54:10;;;;;;;17.90;6.87;;;24.50;90.10;;;;;;5029874;28;20116;-69
2023/07/18 07:56:36;;;;;;;19.43;7.40;;;24.70;89.30;;;;;;5034516;28;20284;-72
2023/07/18 07:59:01;;;;;;;16.33;6.73;;;24.80;88.10;;;;;;5044705;28;20025;-72
2023/07/18 08:01:27;;;;;;;17.60;6.57;;;25.10;88.00;;;;;;5033627;28;20314;-69
2023/07/18 08:03:53;;;;;;;26.97;7.63;;;25.20;88.40;;;;;;5027404;28;20075;-71
2023/07/18 08:06:18;;;;;;;13.95;6.28;;;25.30;87.90;;;;;;5024446;28;20288;-75
2023/07/18 08:08:44;;;;;;;16.17;6.50;;;25.30;88.80;;;;;;5032972;28;20037;-76
2023/07/18 08:11:10;;;;;;;13.53;5.77;;;25.30;90.30;;;;;;5030297;28;20036;-79
2023/07/18 08:13:35;;;;;;;15.13;6.20;;;25.20;90.00;;;;;;5040017;28;20033;-78
2023/07/18 08:16:01;;;;;;;18.80;7.33;;;25.00;86.50;;;;;;5037804;28;20040;-72
2023/07/18 08:18:26;;;;;;;12.90;6.77;;;26.80;84.70;;;;;;5036168;28;20327;-72
2023/07/18 08:20:52;;;;;;;12.37;7.13;;;26.40;83.30;;;;;;5038392;28;20041;-73
2023/07/18 08:23:17;;;;;;;11.87;6.03;;;26.00;84.50;;;;;;5036568;28;20112;-72
2023/07/18 08:25:46;;;;;;;12.45;6.50;;;25.70;86.40;;;;;;5034163;28;20033;-75
2023/07/18 08:28:12;;;;;;;13.45;6.05;;;27.70;85.20;;;;;;5033935;28;20034;-75
2023/07/18 08:30:40;;;;;;;12.50;6.77;;;28.00;80.60;;;;;;5028466;28;20056;-74
2023/07/18 08:33:06;;;;;;;10.25;6.07;;;31.20;73.30;;;;;;5038766;28;20321;-73
2023/07/18 08:35:31;;;;;;;18.00;5.93;;;31.60;70.50;;;;;;5036098;28;20036;-77
2023/07/18 08:37:57;;;;;;;12.82;5.95;;;34.50;65.30;;;;;;5034245;28;20030;-76
2023/07/18 08:40:23;;;;;;;12.45;5.50;;;35.20;60.80;;;;;;5035990;28;20064;-73
2023/07/18 08:42:50;;;;;;;8.18;5.68;;;31.60;66.00;;;;;;5037705;28;20106;-72
2023/07/18 08:45:16;;;;;;;11.55;5.65;;;32.90;66.40;;;;;;5034542;28;20769;-73
2023/07/18 08:47:43;;;;;;;8.23;5.20;;;33.60;63.80;;;;;;5038276;28;20057;-74
2023/07/18 08:50:10;;;;;;;7.85;5.53;;;34.80;63.80;;;;;;5044169;28;20060;-72
2023/07/18 08:52:36;;;;;;;9.98;5.35;;;34.50;64.00;;;;;;5034105;28;20029;-71
2023/07/18 08:55:03;;;;;;;9.07;5.60;;;32.20;64.20;;;;;;5037813;28;20021;-74
2023/07/18 08:57:30;;;;;;;9.07;5.65;;;31.30;71.10;;;;;;5036659;28;20433;-72
2023/07/18 09:00:00;;;;;;;14.20;5.28;;;31.30;71.60;;;;;;5040253;28;20026;-74
2023/07/18 09:02:26;;;;;;;10.70;5.45;;;31.90;71.20;;;;;;5038856;28;20416;-75
2023/07/18 09:04:51;;;;;;;;;;;33.30;67.60;;;;;;5036923;28;20021;-73
2023/07/18 09:07:19;;;;;;;8.57;5.47;;;34.30;65.80;;;;;;5037456;28;19995;-75
2023/07/18 09:09:48;;;;;;;12.93;6.15;;;35.50;64.50;;;;;;5037410;28;20409;-73
2023/07/18 09:12:15;;;;;;;13.77;5.47;;;38.30;59.80;;;;;;5035955;28;20403;-75
2023/07/18 09:14:40;;;;;;;7.40;5.25;;;39.50;55.80;;;;;;5036895;28;20052;-73
2023/07/18 09:17:07;;;;;;;9.80;5.40;;;39.20;55.70;;;;;;5033424;28;20029;-73
2023/07/18 09:19:43;;;;;;;8.98;5.15;;;38.80;56.50;;;;;;5030518;28;20037;-73
2023/07/18 09:22:13;;;;;;;12.70;5.47;;;39.30;54.10;;;;;;5032948;28;20029;-73
2023/07/18 09:24:40;;;;;;;8.43;5.60;;;39.90;54.70;;;;;;5030482;28;20434;-74
2023/07/18 09:27:09;;;;;;;9.93;5.15;;;41.20;52.30;;;;;;5029936;28;20057;-73
2023/07/18 09:29:35;;;;;;;15.75;4.85;;;40.40;53.60;;;;;;5026857;28;20029;-74
2023/07/18 09:32:01;;;;;;;9.02;5.32;;;41.00;53.80;;;;;;5029743;28;20052;-74
2023/07/18 09:34:27;;;;;;;8.07;5.18;;;39.30;53.50;;;;;;5028440;28;20048;-71
2023/07/18 09:37:03;;;;;;;8.38;5.03;;;41.90;53.60;;;;;;5030615;28;20075;-74
2023/07/18 09:39:29;;;;;;;7.07;5.17;;;41.20;52.50;;;;;;5037930;28;20108;-74
2023/07/18 09:41:56;;;;;;;9.93;5.28;;;42.50;52.40;;;;;;5034255;28;20077;-73
2023/07/18 09:44:26;;;;;;;8.73;5.00;;;41.70;50.70;;;;;;5035128;28;20461;-73
2023/07/18 09:46:52;;;;;;;10.07;4.90;;;43.00;51.50;;;;;;5030265;28;20107;-71
2023/07/18 09:49:19;;;;;;;7.85;5.47;;;44.40;51.10;;;;;;5030841;28;20029;-71
2023/07/18 09:52:00;;;;;;;13.35;5.32;;;43.10;50.40;;;;;;5036624;28;20030;-72
2023/07/18 09:54:27;;;;;;;10.10;5.13;;;38.80;54.40;;;;;;5042744;28;20021;-71
2023/07/18 09:56:57;;;;;;;9.05;5.68;;;42.00;55.90;;;;;;5044237;28;20064;-71
2023/07/18 09:59:25;;;;;;;10.20;5.72;;;41.60;51.40;;;;;;5026493;28;20091;-72
2023/07/18 10:01:52;;;;;;;11.48;5.05;;;43.70;52.70;;;;;;5040423;28;20041;-71
2023/07/18 10:04:19;;;;;;;9.70;5.28;;;44.90;51.00;;;;;;5032954;28;20136;-73
2023/07/18 10:06:46;;;;;;;8.07;5.05;;;45.50;51.50;;;;;;5029951;28;20033;-74
2023/07/18 10:09:12;;;;;;;8.27;4.65;;;45.60;51.20;;;;;;5040434;28;20030;-73
2023/07/18 10:12:03;;;;;;;9.43;4.50;;;43.90;50.00;;;;;;5038320;28;20033;-72
2023/07/18 10:14:29;;;;;;;8.75;5.00;;;42.10;52.30;;;;;;5040399;28;20084;-72
2023/07/18 10:16:58;;;;;;;11.20;4.78;;;40.80;52.60;;;;;;5040376;28;20501;-73
2023/07/18 10:19:24;;;;;;;9.98;4.55;;;38.70;55.60;;;;;;5039715;28;20041;-71
2023/07/18 10:21:56;;;;;;;10.73;5.22;;;39.50;53.90;;;;;;5030384;28;20033;-77
2023/07/18 10:24:26;;;;;;;8.10;5.00;;;42.30;53.10;;;;;;5039364;28;20029;-70
2023/07/18 10:27:08;;;;;;;10.82;4.60;;;43.40;49.80;;;;;;5035460;28;20120;-71
2023/07/18 10:29:38;;;;;;;10.68;4.90;;;42.80;50.70;;;;;;5032584;28;20033;-70
2023/07/18 10:32:05;;;;;;;9.65;4.82;;;42.30;51.60;;;;;;5039688;28;20436;-74
2023/07/18 10:34:38;;;;;;;12.40;5.22;;;39.50;53.50;;;;;;5039276;28;20367;-78
2023/07/18 10:37:08;;;;;;;7.68;4.80;;;37.80;57.80;;;;;;5038429;28;20490;-70
2023/07/18 10:39:39;;;;;;;7.28;4.82;;;36.30;59.20;;;;;;5037221;28;20033;-70
2023/07/18 10:42:07;;;;;;;9.90;4.95;;;35.50;59.70;;;;;;5037452;28;20132;-71
2023/07/18 10:44:34;;;;;;;11.48;5.35;;;35.40;61.40;;;;;;5038963;28;20060;-73
2023/07/18 10:46:59;;;;;;;11.23;5.30;;;35.10;61.70;;;;;;5037011;28;20061;-77
2023/07/18 10:49:25;;;;;;;14.18;5.50;;;35.50;61.60;;;;;;5031911;28;20056;-74
2023/07/18 10:51:54;;;;;;;12.48;5.47;;;35.20;62.30;;;;;;5029202;28;20028;-74
2023/07/18 10:54:20;;;;;;;11.70;5.50;;;34.90;62.10;;;;;;5026203;28;20035;-73
2023/07/18 10:56:48;;;;;;;14.07;5.32;;;34.90;62.40;;;;;;5031372;28;20560;-74
2023/07/18 10:59:14;;;;;;;7.03;4.88;;;34.90;64.10;;;;;;5046889;28;20104;-72
2023/07/18 11:01:40;;;;;;;9.60;4.82;;;35.20;63.00;;;;;;5029263;28;20128;-72
2023/07/18 11:04:07;;;;;;;9.95;5.05;;;34.70;64.10;;;;;;5028906;28;20028;-74
2023/07/18 11:06:34;;;;;;;11.95;5.35;;;35.10;66.30;;;;;;5031861;28;20040;-73
2023/07/18 11:08:59;;;;;;;8.55;5.50;;;35.30;62.80;;;;;;5036937;28;20481;-71
2023/07/18 11:11:25;;;;;;;11.38;5.13;;;35.10;66.70;;;;;;5036505;28;20022;-76
2023/07/18 11:13:50;;;;;;;;;;;35.10;63.30;;;;;;5040228;28;20041;-73
2023/07/18 11:16:16;;;;;;;11.88;5.60;;;34.70;64.20;;;;;;5039911;28;20327;-73
2023/07/18 11:18:43;;;;;;;;;;;34.30;65.30;;;;;;5039727;28;20096;-73
2023/07/18 11:21:10;;;;;;;15.30;5.65;;;34.10;64.00;;;;;;5042226;28;19917;-72
2023/07/18 11:23:37;;;;;;;19.70;6.07;;;33.80;65.50;;;;;;5040422;28;20040;-73
2023/07/18 11:26:13;;;;;;;9.98;5.80;;;33.70;64.50;;;;;;5035706;28;20029;-74
2023/07/18 11:28:41;;;;;;;11.25;5.82;;;33.70;65.50;;;;;;5039472;28;20057;-73
2023/07/18 11:31:19;;;;;;;10.45;5.53;;;33.60;65.90;;;;;;5039526;28;20056;-72
2023/07/18 11:33:49;;;;;;;8.75;5.70;;;33.40;66.60;;;;;;5038384;28;20109;-72
2023/07/18 11:36:14;;;;;;;12.43;6.13;;;33.30;64.70;;;;;;5026456;28;20021;-75
2023/07/18 11:38:40;;;;;;;;;;;33.50;68.00;;;;;;5032577;28;20064;-72
2023/07/18 11:41:13;;;;;;;12.15;5.50;;;33.50;65.80;;;;;;5030264;28;19916;-73
2023/07/18 11:43:41;;;;;;;12.27;5.93;;;33.20;65.40;;;;;;5031346;28;20091;-74
2023/07/18 11:46:08;;;;;;;12.10;5.20;;;33.30;66.90;;;;;;5042281;28;20055;-72
2023/07/18 11:48:34;;;;;;;14.95;5.97;;;33.00;67.20;;;;;;5035823;28;20034;-71
2023/07/18 11:51:05;;;;;;;;;;;32.90;67.40;;;;;;5042480;28;20033;-78
2023/07/18 11:53:31;;;;;;;10.93;5.72;;;32.90;69.30;;;;;;5033277;28;20380;-72
2023/07/18 11:55:57;;;;;;;13.40;5.88;;;32.80;68.90;;;;;;5037723;28;20539;-72
2023/07/18 11:58:24;;;;;;;;;;;33.00;69.20;;;;;;5043848;28;20061;-70
2023/07/18 12:00:49;;;;;;;11.90;5.93;;;33.20;68.30;;;;;;5032347;28;19921;-73
2023/07/18 12:03:15;;;;;;;;;;;33.40;71.80;;;;;;5036736;28;20029;-74
2023/07/18 12:05:41;;;;;;;9.57;5.72;;;33.50;71.10;;;;;;5036647;28;19919;-78
2023/07/18 12:08:06;;;;;;;;;;;33.80;67.60;;;;;;5030321;28;20466;-73
2023/07/18 12:10:33;;;;;;;11.73;5.60;;;33.00;68.90;;;;;;5029171;28;19962;-76
2023/07/18 12:12:59;;;;;;;17.92;6.28;;;33.00;69.10;;;;;;5034368;28;20025;-71
2023/07/18 12:15:24;;;;;;;;;;;33.00;70.10;;;;;;5029832;28;20083;-75
2023/07/18 12:17:50;;;;;;;15.75;5.90;;;33.00;69.90;;;;;;5025256;28;19921;-72
2023/07/18 12:20:15;;;;;;;12.05;5.72;;;33.20;68.40;;;;;;5027642;28;20424;-74
2023/07/18 12:22:41;;;;;;;;;;;33.60;66.50;;;;;;5027143;28;20052;-73
2023/07/18 12:25:07;;;;;;;13.05;5.60;;;33.60;69.90;;;;;;5039087;28;19913;-73
2023/07/18 12:27:32;;;;;;;;;;;33.20;70.00;;;;;;5032983;28;20041;-74
2023/07/18 12:29:58;;;;;;;9.60;5.32;;;33.30;69.50;;;;;;5028011;28;19917;-75
2023/07/18 12:32:23;;;;;;;;;;;33.00;70.10;;;;;;5037649;28;20048;-76
2023/07/18 12:34:49;;;;;;;10.35;5.63;;;33.00;68.10;;;;;;5029627;28;19913;-72
2023/07/18 12:37:15;;;;;;;15.27;6.70;;;32.60;69.30;;;;;;5030719;28;20028;-77
2023/07/18 12:39:41;;;;;;;;;;;33.00;71.00;;;;;;5028843;28;20041;-74